createdAt,value
2023-05-05T04:25:24.857Z,13.00
2023-05-05T04:26:24.041Z,10.00
2023-05-05T04:27:25.133Z,11.00
2023-05-05T04:28:23.984Z,13.00
2023-05-05T04:29:24.032Z,14.00
2023-05-05T04:30:23.951Z,14.00
2023-05-05T04:31:24.110Z,17.00
2023-05-05T04:32:24.103Z,17.00
2023-05-05T04:33:24.026Z,9.00
2023-05-05T04:34:23.921Z,11.00
2023-05-05T04:35:23.995Z,15.00
2023-05-05T04:36:23.900Z,18.00
2023-05-05T04:37:23.906Z,14.00
2023-05-05T04:38:23.934Z,11.00
2023-05-05T04:39:23.884Z,12.00
2023-05-05T04:40:24.118Z,10.00
2023-05-05T04:41:23.856Z,11.00
2023-05-05T04:42:23.846Z,15.00
2023-05-05T04:43:23.844Z,18.00
2023-05-05T04:44:23.826Z,23.00
2023-05-05T04:45:23.846Z,25.00
2023-05-05T04:46:23.864Z,20.00
2023-05-05T04:47:23.915Z,21.00
2023-05-05T04:48:23.782Z,23.00
2023-05-05T04:49:23.821Z,28.00
2023-05-05T04:50:23.760Z,36.00
2023-05-05T04:51:23.738Z,37.00
2023-05-05T04:52:23.741Z,25.00
2023-05-05T04:53:23.748Z,26.00
2023-05-05T04:54:23.726Z,24.00
2023-05-05T04:55:23.713Z,25.00
2023-05-05T04:56:23.697Z,21.00
2023-05-05T04:57:23.693Z,17.00
2023-05-05T04:58:23.681Z,16.00
2023-05-05T04:59:23.663Z,16.00
2023-05-05T05:00:23.653Z,17.00
2023-05-05T05:01:23.743Z,19.00
2023-05-05T05:02:23.757Z,19.00
2023-05-05T05:03:23.705Z,19.00
2023-05-05T05:04:23.598Z,20.00
2023-05-05T05:05:23.646Z,19.00
2023-05-05T05:06:23.570Z,19.00
2023-05-05T05:07:23.622Z,20.00
2023-05-05T05:08:23.615Z,21.00
2023-05-05T05:09:23.622Z,24.00
2023-05-05T05:10:23.544Z,26.00
2023-05-05T05:11:23.553Z,27.00
2023-05-05T05:12:23.509Z,29.00
2023-05-05T05:13:23.617Z,32.00
2023-05-05T05:14:23.489Z,34.00
2023-05-05T05:15:23.527Z,38.00
2023-05-05T05:16:23.512Z,42.00
2023-05-05T05:17:23.488Z,44.00
2023-05-05T05:18:23.445Z,44.00
2023-05-05T05:19:23.472Z,44.00
2023-05-05T05:20:23.481Z,47.00
2023-05-05T05:21:23.441Z,47.00
2023-05-05T05:22:23.406Z,45.00
2023-05-05T05:23:23.417Z,43.00
2023-05-05T05:24:23.406Z,42.00
2023-05-05T05:25:23.369Z,40.00
2023-05-05T05:26:23.402Z,42.00
2023-05-05T05:27:23.370Z,41.00
2023-05-05T05:28:23.389Z,43.00
2023-05-05T05:29:23.315Z,49.00
2023-05-05T05:30:23.323Z,55.00
2023-05-05T05:31:23.386Z,54.00
2023-05-05T05:32:23.294Z,52.00
2023-05-05T05:33:23.291Z,50.00
2023-05-05T05:34:23.272Z,51.00
2023-05-05T05:35:23.278Z,50.00
2023-05-05T05:36:23.249Z,53.00
2023-05-05T05:37:23.250Z,55.00
2023-05-05T05:38:23.287Z,61.00
2023-05-05T05:39:23.212Z,85.00
2023-05-05T05:40:23.228Z,110.00
2023-05-05T05:41:23.240Z,207.00
2023-05-05T05:42:23.193Z,84.00
2023-05-05T05:43:23.195Z,85.00
2023-05-05T05:44:23.177Z,114.00
2023-05-05T05:45:23.148Z,150.00
2023-05-05T05:46:23.186Z,152.00
2023-05-05T05:47:23.177Z,162.00
2023-05-05T05:48:23.119Z,213.00
2023-05-05T05:49:23.119Z,294.00
2023-05-05T05:50:23.102Z,383.00
2023-05-05T05:51:23.108Z,411.00
2023-05-05T05:52:23.126Z,384.00
2023-05-05T05:53:23.075Z,759.00
2023-05-05T05:54:23.100Z,374.00
2023-05-05T05:55:23.065Z,100.00
2023-05-05T05:56:23.070Z,330.00
2023-05-05T05:57:23.092Z,337.00
2023-05-05T05:58:23.042Z,331.00
2023-05-05T05:59:23.015Z,314.00
2023-05-05T06:00:22.992Z,329.00
2023-05-05T06:01:22.993Z,325.00
2023-05-05T06:02:23.033Z,428.00
2023-05-05T06:03:23.106Z,153.00
2023-05-05T06:04:23.038Z,143.00
2023-05-05T06:05:22.961Z,195.00
2023-05-05T06:06:22.927Z,103.00
2023-05-05T06:07:22.937Z,136.00
2023-05-05T06:08:24.967Z,67.00
2023-05-05T06:09:22.907Z,60.00
2023-05-05T06:10:30.324Z,56.00
2023-05-05T06:11:22.903Z,56.00
2023-05-05T06:12:22.851Z,59.00
2023-05-05T06:13:22.894Z,62.00
2023-05-05T06:14:22.898Z,67.00
2023-05-05T06:15:22.845Z,93.00
2023-05-05T06:16:22.858Z,44.00
2023-05-05T06:17:22.824Z,42.00
2023-05-05T06:18:22.829Z,42.00
2023-05-05T06:19:22.777Z,48.00
2023-05-05T06:20:22.773Z,79.00
2023-05-05T06:21:22.764Z,342.00
2023-05-05T06:22:22.742Z,67.00
2023-05-05T06:23:22.784Z,102.00
2023-05-05T06:24:22.740Z,48.00
2023-05-05T06:25:22.754Z,48.00
2023-05-05T06:26:22.732Z,47.00
2023-05-05T06:27:22.744Z,48.00
2023-05-05T06:28:22.705Z,50.00
2023-05-05T06:29:22.723Z,56.00
2023-05-05T06:30:22.678Z,258.00
2023-05-05T06:31:22.695Z,732.00
2023-05-05T06:32:22.699Z,131.00
2023-05-05T06:33:22.645Z,428.00
2023-05-05T06:34:22.614Z,419.00
2023-05-05T06:35:22.670Z,397.00
2023-05-05T06:36:22.662Z,374.00
2023-05-05T06:37:22.589Z,361.00
2023-05-05T06:38:22.576Z,1004.00
2023-05-05T06:39:22.588Z,134.00
2023-05-05T06:40:22.582Z,96.00
2023-05-05T06:41:22.597Z,101.00
2023-05-05T06:42:22.536Z,116.00
2023-05-05T06:43:22.547Z,114.00
2023-05-05T06:44:22.616Z,108.00
2023-05-05T06:45:22.568Z,169.00
2023-05-05T06:46:22.530Z,197.00
2023-05-05T06:47:22.481Z,127.00
2023-05-05T06:48:22.502Z,204.00
2023-05-05T06:49:22.473Z,191.00
2023-05-05T06:50:22.473Z,77.00
2023-05-05T06:51:22.433Z,37.00
2023-05-05T06:52:22.440Z,33.00
2023-05-05T06:53:22.429Z,39.00
2023-05-05T06:54:22.444Z,62.00
2023-05-05T06:55:22.469Z,36.00
2023-05-05T06:56:22.416Z,26.00
2023-05-05T06:57:22.363Z,17.00
2023-05-05T06:58:22.361Z,8.00
2023-05-05T06:59:22.336Z,7.00
2023-05-05T07:00:22.367Z,6.00
2023-05-05T07:01:22.405Z,6.00
2023-05-05T07:02:23.512Z,5.00
2023-05-05T07:03:22.363Z,7.00
2023-05-05T07:04:22.285Z,7.00
2023-05-05T07:05:22.332Z,10.00
2023-05-05T07:06:22.276Z,10.00
2023-05-05T07:07:22.288Z,6.00
2023-05-05T07:08:22.288Z,10.00
2023-05-05T07:09:22.250Z,11.00
2023-05-05T07:10:22.228Z,20.00
2023-05-05T07:11:22.847Z,11.00
2023-05-05T07:12:22.227Z,10.00
2023-05-05T07:13:22.231Z,17.00
2023-05-05T07:14:24.351Z,14.00
2023-05-05T07:15:28.578Z,26.00
2023-05-05T07:16:22.302Z,30.00
2023-05-05T07:17:22.239Z,24.00
2023-05-05T07:18:22.197Z,59.00
2023-05-05T07:19:22.137Z,42.00
2023-05-05T07:20:22.212Z,37.00
2023-05-05T07:21:22.126Z,56.00
2023-05-05T07:22:22.168Z,77.00
2023-05-05T07:23:22.104Z,57.00
2023-05-05T07:24:22.120Z,94.00
2023-05-05T07:25:22.114Z,122.00
2023-05-05T07:26:22.073Z,69.00
2023-05-05T07:27:22.089Z,122.00
2023-05-05T07:28:22.086Z,182.00
2023-05-05T07:29:22.052Z,205.00
2023-05-05T07:30:22.222Z,177.00
2023-05-05T07:31:22.033Z,77.00
2023-05-05T07:32:22.095Z,129.00
2023-05-05T07:33:22.004Z,145.00
2023-05-05T07:34:22.012Z,118.00
2023-05-05T07:35:21.967Z,111.00
2023-05-05T07:36:21.951Z,74.00
2023-05-05T07:37:21.994Z,139.00
2023-05-05T07:38:21.926Z,125.00
2023-05-05T07:39:21.916Z,100.00
2023-05-05T07:40:21.919Z,133.00
2023-05-05T07:41:21.910Z,143.00
2023-05-05T07:42:21.906Z,79.00
2023-05-05T07:43:21.918Z,102.00
2023-05-05T07:44:21.888Z,160.00
2023-05-05T07:45:21.849Z,197.00
2023-05-05T07:46:21.912Z,126.00
2023-05-05T07:47:22.035Z,85.00
2023-05-05T07:48:21.838Z,154.00
2023-05-05T07:49:21.856Z,77.00
2023-05-05T07:50:21.817Z,46.00
2023-05-05T07:51:21.812Z,69.00
2023-05-05T07:52:33.203Z,101.00
2023-05-05T07:53:21.800Z,155.00
2023-05-05T07:54:21.768Z,131.00
2023-05-05T07:55:21.799Z,75.00
2023-05-05T07:56:21.967Z,71.00
2023-05-05T07:57:21.761Z,83.00
2023-05-05T07:58:21.755Z,175.00
2023-05-05T07:59:21.718Z,167.00
2023-05-05T08:00:21.779Z,151.00
2023-05-05T08:01:21.726Z,106.00
2023-05-05T08:02:21.730Z,83.00
2023-05-05T08:03:21.814Z,122.00
2023-05-05T08:04:22.398Z,193.00
2023-05-05T08:05:21.656Z,118.00
2023-05-05T08:06:21.633Z,202.00
2023-05-05T08:07:21.673Z,154.00
2023-05-05T08:08:21.636Z,155.00
2023-05-05T08:09:21.601Z,135.00
2023-05-05T08:10:21.644Z,179.00
2023-05-05T08:11:21.638Z,151.00
2023-05-05T08:12:21.671Z,187.00
2023-05-05T08:13:21.581Z,208.00
2023-05-05T08:14:21.577Z,158.00
2023-05-05T08:15:21.545Z,147.00
2023-05-05T08:16:21.616Z,180.00
2023-05-05T08:17:21.546Z,160.00
2023-05-05T08:18:21.522Z,194.00
2023-05-05T08:19:28.894Z,237.00
2023-05-05T08:20:21.484Z,123.00
2023-05-05T08:21:21.502Z,208.00
2023-05-05T08:22:21.473Z,151.00
2023-05-05T08:23:21.526Z,169.00
2023-05-05T08:24:21.492Z,192.00
2023-05-05T08:25:21.442Z,181.00
2023-05-05T08:26:21.438Z,173.00
2023-05-05T08:27:21.419Z,157.00
2023-05-05T08:28:21.417Z,171.00
2023-05-05T08:29:21.627Z,153.00
2023-05-05T08:30:21.383Z,116.00
2023-05-05T08:31:21.401Z,105.00
2023-05-05T08:32:21.383Z,132.00
2023-05-05T08:33:21.355Z,144.00
2023-05-05T08:34:21.326Z,101.00
2023-05-05T08:35:21.317Z,126.00
2023-05-05T08:36:21.308Z,114.00
2023-05-05T08:37:21.297Z,147.00
2023-05-05T08:38:21.357Z,116.00
2023-05-05T08:39:21.275Z,128.00
2023-05-05T08:40:21.432Z,264.00
2023-05-05T08:41:21.252Z,153.00
2023-05-05T08:42:35.662Z,118.00
2023-05-05T08:43:21.230Z,142.00
2023-05-05T08:44:21.237Z,162.00
2023-05-05T08:45:21.207Z,165.00
2023-05-05T08:46:21.237Z,127.00
2023-05-05T08:47:21.187Z,142.00
2023-05-05T08:48:21.273Z,190.00
2023-05-05T08:49:21.165Z,230.00
2023-05-05T08:50:21.172Z,248.00
2023-05-05T08:51:21.135Z,200.00
2023-05-05T08:52:21.133Z,231.00
2023-05-05T08:53:21.123Z,166.00
2023-05-05T08:54:21.098Z,200.00
2023-05-05T08:55:21.193Z,202.00
2023-05-05T08:56:21.073Z,145.00
2023-05-05T08:57:21.084Z,156.00
2023-05-05T08:58:21.060Z,175.00
2023-05-05T08:59:21.035Z,188.00
2023-05-05T09:00:21.050Z,174.00
2023-05-05T09:01:21.082Z,156.00
2023-05-05T09:02:21.043Z,137.00
2023-05-05T09:03:21.029Z,182.00
2023-05-05T09:04:21.059Z,134.00
2023-05-05T09:05:20.980Z,187.00
2023-05-05T09:06:20.982Z,132.00
2023-05-05T09:07:21.028Z,131.00
2023-05-05T09:08:20.986Z,177.00
2023-05-05T09:09:20.945Z,211.00
2023-05-05T09:10:20.989Z,158.00
2023-05-05T09:11:20.939Z,125.00
2023-05-05T09:12:20.930Z,150.00
2023-05-05T09:13:20.928Z,139.00
2023-05-05T09:14:20.891Z,176.00
2023-05-05T09:15:20.874Z,196.00
2023-05-05T09:16:20.905Z,167.00
2023-05-05T09:17:20.864Z,123.00
2023-05-05T09:18:20.866Z,156.00
2023-05-05T09:19:20.835Z,143.00
2023-05-05T09:20:20.844Z,163.00
2023-05-05T09:21:20.815Z,140.00
2023-05-05T09:22:20.808Z,145.00
2023-05-05T09:23:20.849Z,159.00
2023-05-05T09:24:20.780Z,151.00
2023-05-05T09:25:20.772Z,157.00
2023-05-05T09:26:20.758Z,247.00
2023-05-05T09:27:20.743Z,247.00
2023-05-05T09:28:20.750Z,188.00
2023-05-05T09:29:20.724Z,142.00
2023-05-05T09:30:20.719Z,131.00
2023-05-05T09:31:20.769Z,138.00
2023-05-05T09:32:20.687Z,194.00
2023-05-05T09:33:20.683Z,123.00
2023-05-05T09:34:20.689Z,124.00
2023-05-05T09:35:20.658Z,167.00
2023-05-05T09:36:20.642Z,122.00
2023-05-05T09:37:20.633Z,163.00
2023-05-05T09:38:20.648Z,123.00
2023-05-05T09:39:20.652Z,138.00
2023-05-05T09:40:20.786Z,154.00
2023-05-05T09:41:20.589Z,150.00
2023-05-05T09:42:20.596Z,155.00
2023-05-05T09:43:20.574Z,146.00
2023-05-05T09:44:20.573Z,126.00
2023-05-05T09:45:20.578Z,149.00
2023-05-05T09:46:20.628Z,150.00
2023-05-05T09:47:29.328Z,141.00
2023-05-05T09:48:20.602Z,194.00
2023-05-05T09:49:20.500Z,167.00
2023-05-05T09:50:20.627Z,269.00
2023-05-05T09:51:20.540Z,139.00
2023-05-05T09:52:20.486Z,303.00
2023-05-05T09:53:20.469Z,119.00
2023-05-05T09:54:20.462Z,122.00
2023-05-05T09:55:20.440Z,125.00
2023-05-05T09:56:20.461Z,173.00
2023-05-05T09:57:20.438Z,187.00
2023-05-05T09:58:20.501Z,187.00
2023-05-05T09:59:20.408Z,131.00
2023-05-05T10:00:20.540Z,180.00
2023-05-05T10:01:20.392Z,113.00
2023-05-05T10:02:20.386Z,114.00
2023-05-05T10:03:20.361Z,116.00
2023-05-05T10:04:20.351Z,117.00
2023-05-05T10:05:20.392Z,119.00
2023-05-05T10:06:20.328Z,132.00
2023-05-05T10:07:20.331Z,254.00
2023-05-05T10:08:20.327Z,237.00
2023-05-05T10:09:20.303Z,123.00
2023-05-05T10:10:20.295Z,134.00
2023-05-05T10:11:20.277Z,245.00
2023-05-05T10:12:20.274Z,249.00
2023-05-05T10:13:20.328Z,161.00
2023-05-05T10:14:20.256Z,110.00
2023-05-05T10:15:20.218Z,184.00
2023-05-05T10:16:20.269Z,109.00
2023-05-05T10:17:20.213Z,110.00
2023-05-05T10:18:20.266Z,110.00
2023-05-05T10:19:20.183Z,115.00
2023-05-05T10:20:20.203Z,157.00
2023-05-05T10:21:20.209Z,130.00
2023-05-05T10:22:20.156Z,101.00
2023-05-05T10:23:20.143Z,112.00
2023-05-05T10:24:20.132Z,145.00
2023-05-05T10:25:20.125Z,112.00
2023-05-05T10:26:20.135Z,107.00
2023-05-05T10:27:20.114Z,106.00
2023-05-05T10:28:20.105Z,111.00
2023-05-05T10:29:20.073Z,118.00
2023-05-05T10:30:20.093Z,108.00
2023-05-05T10:31:25.061Z,103.00
2023-05-05T10:32:47.439Z,109.00
2023-05-05T10:34:20.080Z,99.00
2023-05-05T10:35:20.042Z,100.00
2023-05-05T10:36:20.045Z,100.00
2023-05-05T10:37:20.027Z,99.00
2023-05-05T10:38:19.977Z,95.00
2023-05-05T10:39:20.131Z,95.00
2023-05-05T10:40:20.003Z,98.00
2023-05-05T10:41:19.953Z,103.00
2023-05-05T10:42:19.948Z,104.00
2023-05-05T10:43:20.836Z,101.00
2023-05-05T10:44:19.953Z,98.00
2023-05-05T10:45:19.963Z,98.00
2023-05-05T10:46:19.979Z,100.00
2023-05-05T10:47:19.906Z,99.00
2023-05-05T10:48:19.911Z,103.00
2023-05-05T10:49:19.885Z,105.00
2023-05-05T10:50:19.858Z,102.00
2023-05-05T10:51:31.125Z,100.00
2023-05-05T10:52:19.841Z,98.00
2023-05-05T10:53:19.828Z,95.00
2023-05-05T10:54:19.874Z,95.00
2023-05-05T10:55:19.824Z,96.00
2023-05-05T10:56:19.836Z,98.00
2023-05-05T10:57:19.805Z,97.00
2023-05-05T10:58:19.813Z,92.00
2023-05-05T10:59:19.784Z,92.00
2023-05-05T11:00:19.812Z,94.00
2023-05-05T11:01:19.862Z,92.00
2023-05-05T11:02:19.777Z,93.00
2023-05-05T11:03:19.797Z,94.00
2023-05-05T11:04:19.712Z,92.00
2023-05-05T11:05:19.707Z,95.00
2023-05-05T11:06:19.690Z,97.00
2023-05-05T11:07:19.682Z,100.00
2023-05-05T11:08:19.702Z,109.00
2023-05-05T11:09:19.672Z,113.00
2023-05-05T11:10:19.649Z,116.00
2023-05-05T11:11:19.636Z,126.00
2023-05-05T11:12:19.622Z,155.00
2023-05-05T11:13:19.716Z,123.00
2023-05-05T11:14:19.645Z,115.00
2023-05-05T11:15:19.600Z,113.00
2023-05-05T11:16:19.655Z,116.00
2023-05-05T11:17:19.587Z,140.00
2023-05-05T11:18:19.562Z,160.00
2023-05-05T11:19:19.575Z,121.00
2023-05-05T11:20:19.558Z,139.00
2023-05-05T11:21:19.565Z,132.00
2023-05-05T11:22:19.525Z,193.00
2023-05-05T11:23:19.531Z,196.00
2023-05-05T11:24:19.516Z,136.00
2023-05-05T11:25:19.518Z,254.00
2023-05-05T11:26:19.484Z,156.00
2023-05-05T11:27:19.488Z,313.00
2023-05-05T11:28:19.455Z,180.00
2023-05-05T11:29:19.477Z,239.00
2023-05-05T11:30:19.450Z,166.00
2023-05-05T11:31:19.751Z,362.00
2023-05-05T11:32:19.427Z,275.00
2023-05-05T11:33:19.411Z,106.00
2023-05-05T11:34:19.395Z,128.00
2023-05-05T11:35:19.404Z,132.00
2023-05-05T11:36:19.386Z,244.00
2023-05-05T11:37:19.384Z,201.00
2023-05-05T11:38:19.373Z,133.00
2023-05-05T11:39:19.430Z,190.00
2023-05-05T11:40:19.357Z,138.00
2023-05-05T11:41:19.462Z,160.00
2023-05-05T11:42:19.327Z,257.00
2023-05-05T11:43:19.315Z,211.00
2023-05-05T11:44:19.512Z,146.00
2023-05-05T11:45:19.289Z,106.00
2023-05-05T11:46:19.349Z,108.00
2023-05-05T11:47:19.273Z,117.00
2023-05-05T11:48:19.250Z,118.00
2023-05-05T11:49:19.244Z,130.00
2023-05-05T11:50:19.252Z,141.00
2023-05-05T11:51:19.256Z,146.00
2023-05-05T11:52:19.227Z,215.00
2023-05-05T11:53:19.193Z,130.00
2023-05-05T11:54:19.193Z,126.00
2023-05-05T11:55:19.183Z,137.00
2023-05-05T11:56:19.409Z,355.00
2023-05-05T11:57:19.181Z,160.00
2023-05-05T11:58:19.226Z,155.00
2023-05-05T11:59:19.228Z,160.00
2023-05-05T12:00:19.125Z,144.00
2023-05-05T12:01:19.133Z,129.00
2023-05-05T12:02:19.201Z,104.00
2023-05-05T12:03:19.255Z,113.00
2023-05-05T12:04:19.168Z,158.00
2023-05-05T12:05:19.084Z,96.00
2023-05-05T12:06:19.085Z,80.00
2023-05-05T12:07:19.096Z,99.00
2023-05-05T12:08:19.071Z,153.00
2023-05-05T12:09:19.045Z,114.00
2023-05-05T12:10:19.022Z,122.00
2023-05-05T12:11:19.000Z,132.00
2023-05-05T12:12:19.023Z,138.00
2023-05-05T12:13:19.237Z,137.00
2023-05-05T12:14:19.018Z,161.00
2023-05-05T12:15:18.991Z,122.00
2023-05-05T12:16:18.980Z,118.00
2023-05-05T12:17:18.959Z,119.00
2023-05-05T12:18:18.938Z,136.00
2023-05-05T12:19:18.925Z,170.00
2023-05-05T12:20:18.929Z,157.00
2023-05-05T12:21:18.900Z,131.00
2023-05-05T12:22:18.901Z,129.00
2023-05-05T12:23:18.898Z,133.00
2023-05-05T12:24:18.865Z,278.00
2023-05-05T12:25:18.889Z,132.00
2023-05-05T12:26:18.866Z,154.00
2023-05-05T12:27:18.886Z,316.00
2023-05-05T12:28:18.839Z,284.00
2023-05-05T12:29:18.956Z,253.00
2023-05-05T12:30:18.971Z,138.00
2023-05-05T12:31:18.866Z,195.00
2023-05-05T12:32:18.811Z,182.00
2023-05-05T12:33:18.779Z,133.00
2023-05-05T12:34:18.788Z,321.00
2023-05-05T12:35:18.767Z,182.00
2023-05-05T12:36:18.775Z,201.00
2023-05-05T12:37:18.752Z,158.00
2023-05-05T12:38:18.752Z,156.00
2023-05-05T12:39:18.729Z,234.00
2023-05-05T12:40:18.772Z,237.00
2023-05-05T12:41:18.817Z,225.00
2023-05-05T12:42:18.823Z,238.00
2023-05-05T12:43:18.691Z,270.00
2023-05-05T12:44:18.680Z,226.00
2023-05-05T12:45:18.935Z,245.00
2023-05-05T12:46:21.089Z,370.00
2023-05-05T13:07:26.468Z,70.00
2023-05-05T13:08:25.089Z,79.00
2023-05-05T13:09:25.105Z,87.00
2023-05-05T13:10:24.960Z,59.00
2023-05-05T13:11:24.941Z,51.00
2023-05-05T13:12:25.162Z,52.00
2023-05-05T13:13:25.086Z,44.00
2023-05-05T13:14:24.922Z,49.00
2023-05-05T13:15:24.881Z,60.00
2023-05-05T13:16:25.086Z,108.00
2023-05-05T13:17:24.869Z,90.00
2023-05-05T13:18:24.840Z,144.00
2023-05-05T13:19:24.813Z,167.00
2023-05-05T13:20:24.866Z,138.00
2023-05-05T13:21:24.830Z,89.00
2023-05-05T13:22:24.827Z,99.00
2023-05-05T13:23:25.858Z,140.00
2023-05-05T13:24:34.902Z,79.00
2023-05-05T13:25:24.743Z,105.00
2023-05-05T13:26:24.734Z,184.00
2023-05-05T13:27:24.712Z,147.00
2023-05-05T13:28:24.707Z,118.00
2023-05-05T13:29:29.522Z,77.00
2023-05-05T13:30:24.688Z,85.00
2023-05-05T13:31:24.756Z,94.00
2023-05-05T13:32:24.723Z,104.00
2023-05-05T13:33:24.643Z,192.00
2023-05-05T13:34:24.896Z,107.00
2023-05-05T13:35:24.648Z,177.00
2023-05-05T13:36:24.619Z,137.00
2023-05-05T13:37:24.614Z,154.00
2023-05-05T13:38:24.605Z,195.00
2023-05-05T13:39:24.596Z,208.00
2023-05-05T13:40:25.925Z,152.00
2023-05-05T13:41:24.818Z,163.00
2023-05-05T13:42:24.606Z,236.00
2023-05-05T13:43:24.568Z,225.00
2023-05-05T13:44:24.539Z,232.00
2023-05-05T13:45:24.622Z,178.00
2023-05-05T13:46:24.550Z,197.00
2023-05-05T13:47:24.608Z,220.00
2023-05-05T13:48:24.511Z,206.00
2023-05-05T13:49:24.498Z,149.00
2023-05-05T13:50:24.468Z,152.00
2023-05-05T13:51:24.500Z,150.00
2023-05-05T13:52:24.446Z,118.00
2023-05-05T13:53:24.442Z,94.00
2023-05-05T13:54:24.464Z,75.00
2023-05-05T13:55:24.424Z,93.00
2023-05-05T13:56:24.454Z,81.00
2023-05-05T13:57:24.406Z,92.00
2023-05-05T13:58:24.398Z,111.00
2023-05-05T13:59:24.438Z,91.00
2023-05-05T14:00:24.382Z,115.00
2023-05-05T14:01:24.436Z,100.00
2023-05-05T14:02:24.391Z,80.00
2023-05-05T14:03:24.351Z,61.00
2023-05-05T14:04:24.422Z,62.00
2023-05-05T14:05:24.309Z,83.00
2023-05-05T14:06:24.312Z,111.00
2023-05-05T14:07:24.292Z,93.00
2023-05-05T14:08:24.286Z,88.00
2023-05-05T14:09:24.329Z,80.00
2023-05-05T14:10:24.253Z,52.00
2023-05-05T14:11:24.299Z,38.00
2023-05-05T14:12:24.251Z,32.00
2023-05-05T14:13:24.259Z,18.00
2023-05-05T14:14:24.236Z,12.00
2023-05-05T14:15:24.253Z,7.00
2023-05-05T14:16:24.245Z,5.00
2023-05-05T14:17:24.948Z,5.00
2023-05-05T14:18:24.367Z,1.00
2023-05-05T14:19:24.314Z,1.00
2023-05-05T14:20:24.188Z,3.00
2023-05-05T14:21:24.209Z,5.00
2023-05-05T14:22:24.152Z,6.00
2023-05-05T14:23:24.154Z,4.00
2023-05-05T14:24:24.164Z,2.00
2023-05-05T14:25:24.122Z,5.00
2023-05-05T14:26:24.120Z,13.00
2023-05-05T14:27:24.145Z,24.00
2023-05-05T14:28:24.098Z,20.00
2023-05-05T14:29:24.339Z,11.00
2023-05-05T14:30:24.052Z,6.00
2023-05-05T14:31:24.094Z,2.00
2023-05-05T14:32:24.044Z,2.00
2023-05-05T14:33:24.036Z,10.00
2023-05-05T14:34:24.039Z,7.00
2023-05-05T14:35:24.009Z,6.00
2023-05-05T14:36:24.009Z,6.00
2023-05-05T14:37:23.989Z,10.00
2023-05-05T14:38:23.974Z,18.00
2023-05-05T14:39:23.952Z,33.00
2023-05-05T14:40:23.949Z,26.00
2023-05-05T14:41:23.932Z,13.00
2023-05-05T14:42:23.937Z,29.00
2023-05-05T14:43:23.990Z,27.00
2023-05-05T14:44:23.950Z,29.00
2023-05-05T14:45:23.898Z,40.00
2023-05-05T14:46:23.942Z,47.00
2023-05-05T14:47:23.925Z,46.00
2023-05-05T14:48:23.869Z,24.00
2023-05-05T14:49:23.850Z,24.00
2023-05-05T14:50:23.842Z,18.00
2023-05-05T14:51:23.977Z,10.00
2023-05-05T14:52:23.821Z,6.00
2023-05-05T14:53:23.823Z,11.00
2023-05-05T14:54:28.448Z,18.00
2023-05-05T14:55:23.800Z,7.00
2023-05-05T14:56:23.770Z,8.00
2023-05-05T14:57:23.770Z,13.00
2023-05-05T14:58:23.779Z,49.00
2023-05-05T14:59:23.751Z,16.00
2023-05-05T15:00:23.730Z,46.00
2023-05-05T15:01:23.786Z,51.00
2023-05-05T15:02:23.836Z,41.00
2023-05-05T15:03:23.761Z,59.00
2023-05-05T15:04:23.727Z,50.00
2023-05-05T15:05:23.687Z,57.00
2023-05-05T15:06:23.675Z,67.00
2023-05-05T15:07:23.653Z,54.00
2023-05-05T15:08:23.678Z,47.00
2023-05-05T15:09:23.920Z,25.00
2023-05-05T15:10:23.751Z,46.00
2023-05-05T15:11:23.631Z,79.00
2023-05-05T15:12:23.630Z,64.00
2023-05-05T15:13:23.601Z,90.00
2023-05-05T15:14:23.657Z,82.00
2023-05-05T15:15:23.575Z,77.00
2023-05-05T15:16:23.616Z,74.00
2023-05-05T15:17:23.577Z,64.00
2023-05-05T15:18:23.561Z,60.00
2023-05-05T15:19:23.584Z,55.00
2023-05-05T15:20:23.516Z,38.00
2023-05-05T15:21:23.539Z,49.00
2023-05-05T15:22:23.510Z,65.00
2023-05-05T15:23:23.516Z,64.00
2023-05-05T15:24:23.459Z,75.00
2023-05-05T15:25:23.493Z,82.00
2023-05-05T15:26:23.491Z,70.00
2023-05-05T15:27:23.441Z,68.00
2023-05-05T15:28:23.423Z,79.00
2023-05-05T15:29:23.434Z,80.00
2023-05-05T15:30:23.419Z,97.00
2023-05-05T15:31:23.394Z,81.00
2023-05-05T15:32:23.462Z,139.00
2023-05-05T15:33:23.393Z,117.00
2023-05-05T15:34:23.356Z,124.00
2023-05-05T15:35:23.345Z,139.00
2023-05-05T15:36:23.351Z,154.00
2023-05-05T15:37:23.320Z,171.00
2023-05-05T15:38:23.443Z,156.00
2023-05-05T15:39:23.328Z,160.00
2023-05-05T15:40:23.290Z,163.00
2023-05-05T15:41:23.283Z,185.00
2023-05-05T15:42:23.262Z,190.00
2023-05-05T15:43:23.289Z,169.00
2023-05-05T15:44:23.260Z,153.00
2023-05-05T15:45:23.320Z,154.00
2023-05-05T15:46:23.243Z,153.00
2023-05-05T15:47:23.217Z,151.00
2023-05-05T15:48:23.203Z,140.00
2023-05-05T15:49:23.237Z,118.00
2023-05-05T15:50:23.178Z,157.00
2023-05-05T15:51:23.174Z,159.00
2023-05-05T15:52:23.167Z,153.00
2023-05-05T15:53:23.146Z,148.00
2023-05-05T15:54:23.127Z,135.00
2023-05-05T15:55:23.166Z,140.00
2023-05-05T15:56:23.124Z,156.00
2023-05-05T15:57:23.090Z,154.00
2023-05-05T15:58:23.117Z,119.00
2023-05-05T15:59:23.083Z,124.00
2023-05-05T16:00:23.100Z,145.00
2023-05-05T16:01:23.097Z,135.00
2023-05-05T16:02:23.058Z,104.00
2023-05-05T16:03:23.132Z,90.00
2023-05-05T16:04:23.021Z,93.00
2023-05-05T16:05:23.361Z,83.00
2023-05-05T16:06:23.016Z,78.00
2023-05-05T16:07:22.983Z,43.00
2023-05-05T16:08:22.996Z,42.00
2023-05-05T16:09:22.976Z,54.00
2023-05-05T16:10:22.947Z,83.00
2023-05-05T16:11:23.050Z,63.00
2023-05-05T16:12:22.981Z,54.00
2023-05-05T16:13:22.932Z,28.00
2023-05-05T16:14:22.906Z,48.00
2023-05-05T16:15:22.950Z,54.00
2023-05-05T16:16:23.283Z,44.00
2023-05-05T16:17:22.962Z,83.00
2023-05-05T16:18:22.864Z,63.00
2023-05-05T16:19:23.211Z,58.00
2023-05-05T16:20:22.861Z,80.00
2023-05-05T16:21:22.883Z,81.00
2023-05-05T16:22:22.904Z,75.00
2023-05-05T16:23:22.800Z,77.00
2023-05-05T16:24:22.792Z,72.00
2023-05-05T16:25:22.793Z,65.00
2023-05-05T16:26:22.781Z,66.00
2023-05-05T16:27:22.830Z,46.00
2023-05-05T16:28:22.775Z,58.00
2023-05-05T16:29:22.736Z,58.00
2023-05-05T16:30:22.726Z,37.00
2023-05-05T16:31:22.762Z,21.00
2023-05-05T16:32:22.858Z,39.00
2023-05-05T16:33:22.736Z,39.00
2023-05-05T16:34:22.709Z,51.00
2023-05-05T16:35:22.708Z,27.00
2023-05-05T16:36:22.781Z,84.00
2023-05-05T16:37:22.702Z,36.00
2023-05-05T16:38:22.666Z,45.00
2023-05-05T16:39:22.688Z,59.00
2023-05-05T16:40:22.620Z,72.00
2023-05-05T16:41:22.672Z,65.00
2023-05-05T16:42:22.614Z,68.00
2023-05-05T16:43:22.608Z,59.00
2023-05-05T16:44:22.574Z,51.00
2023-05-05T16:45:22.641Z,67.00
2023-05-05T16:46:22.659Z,47.00
2023-05-05T16:47:22.572Z,42.00
2023-05-05T16:48:22.539Z,37.00
2023-05-05T16:49:22.700Z,52.00
2023-05-05T16:50:22.547Z,20.00
2023-05-05T16:51:22.499Z,33.00
2023-05-05T16:52:22.542Z,33.00
2023-05-05T16:53:22.477Z,36.00
2023-05-05T16:54:22.461Z,25.00
2023-05-05T16:55:22.454Z,32.00
2023-05-05T16:56:22.437Z,12.00
2023-05-05T16:57:22.477Z,25.00
2023-05-05T16:58:22.510Z,19.00
2023-05-05T16:59:22.488Z,13.00
2023-05-05T17:00:22.405Z,27.00
2023-05-05T17:01:22.476Z,30.00
2023-05-05T17:02:22.393Z,39.00
2023-05-05T17:03:22.387Z,29.00
2023-05-05T17:04:22.370Z,27.00
2023-05-05T17:05:22.385Z,32.00
2023-05-05T17:06:22.383Z,27.00
2023-05-05T17:07:22.332Z,30.00
2023-05-05T17:08:22.350Z,29.00
2023-05-05T17:09:22.312Z,28.00
2023-05-05T17:10:22.357Z,37.00
2023-05-05T17:11:22.349Z,26.00
2023-05-05T17:12:22.318Z,47.00
2023-05-05T17:13:22.808Z,27.00
2023-05-05T17:14:22.304Z,25.00
2023-05-05T17:15:22.328Z,28.00
2023-05-05T17:16:22.304Z,16.00
2023-05-05T17:17:22.284Z,10.00
2023-05-05T17:18:22.226Z,10.00
2023-05-05T17:19:22.182Z,12.00
2023-05-05T17:20:22.172Z,19.00
2023-05-05T17:21:22.164Z,13.00
2023-05-05T17:22:22.166Z,34.00
2023-05-05T17:23:22.149Z,21.00
2023-05-05T17:24:22.151Z,33.00
2023-05-05T17:25:22.113Z,31.00
2023-05-05T17:26:22.116Z,29.00